sensor_id;sensor_type;location;lat;lon;timestamp;temperature;humidity
75010;DHT22;63564;46.840;18.336;2022-10-31T00:00:35;11.06;99.41
75010;DHT22;63564;46.840;18.336;2022-10-31T00:03:36;10.88;99.99
75010;DHT22;63564;46.840;18.336;2022-10-31T00:06:36;10.86;99.99
75010;DHT22;63564;46.840;18.336;2022-10-31T00:09:36;10.83;99.99
75010;DHT22;63564;46.840;18.336;2022-10-31T00:12:37;10.98;99.99
75010;DHT22;63564;46.840;18.336;2022-10-31T00:15:38;10.91;99.99
75010;DHT22;63564;46.840;18.336;2022-10-31T00:18:39;10.98;99.99
75010;DHT22;63564;46.840;18.336;2022-10-31T00:21:39;10.99;99.99
75010;DHT22;63564;46.840;18.336;2022-10-31T00:24:40;10.91;99.93
75010;DHT22;63564;46.840;18.336;2022-10-31T00:27:40;10.92;99.99
75010;DHT22;63564;46.840;18.336;2022-10-31T00:30:41;10.76;99.99
75010;DHT22;63564;46.840;18.336;2022-10-31T00:33:42;10.73;99.99
75010;DHT22;63564;46.840;18.336;2022-10-31T00:36:42;10.96;99.99
75010;DHT22;63564;46.840;18.336;2022-10-31T00:39:43;10.96;99.99
75010;DHT22;63564;46.840;18.336;2022-10-31T00:42:45;10.91;99.99
75010;DHT22;63564;46.840;18.336;2022-10-31T00:45:45;11.02;99.99
75010;DHT22;63564;46.840;18.336;2022-10-31T00:48:45;10.92;99.99
75010;DHT22;63564;46.840;18.336;2022-10-31T00:51:46;10.83;99.99
75010;DHT22;63564;46.840;18.336;2022-10-31T00:54:46;10.92;99.99
75010;DHT22;63564;46.840;18.336;2022-10-31T00:57:47;10.78;99.99
75010;DHT22;63564;46.840;18.336;2022-10-31T01:00:48;10.67;99.99
75010;DHT22;63564;46.840;18.336;2022-10-31T01:03:54;10.82;99.99
75010;DHT22;63564;46.840;18.336;2022-10-31T01:06:55;10.75;99.99
75010;DHT22;63564;46.840;18.336;2022-10-31T01:09:55;10.86;99.99
75010;DHT22;63564;46.840;18.336;2022-10-31T01:12:55;10.76;99.99
75010;DHT22;63564;46.840;18.336;2022-10-31T01:15:57;10.79;99.99
75010;DHT22;63564;46.840;18.336;2022-10-31T01:18:57;10.81;99.99
75010;DHT22;63564;46.840;18.336;2022-10-31T01:21:58;10.91;99.99
75010;DHT22;63564;46.840;18.336;2022-10-31T01:24:58;11.03;99.99
75010;DHT22;63564;46.840;18.336;2022-10-31T01:27:58;10.93;99.99
75010;DHT22;63564;46.840;18.336;2022-10-31T01:31:07;10.91;99.99
75010;DHT22;63564;46.840;18.336;2022-10-31T01:34:12;10.78;99.99
75010;DHT22;63564;46.840;18.336;2022-10-31T01:37:13;10.76;99.99
75010;DHT22;63564;46.840;18.336;2022-10-31T01:40:13;10.92;99.99
75010;DHT22;63564;46.840;18.336;2022-10-31T01:43:14;10.78;99.99
75010;DHT22;63564;46.840;18.336;2022-10-31T01:46:16;10.68;99.99
75010;DHT22;63564;46.840;18.336;2022-10-31T01:49:37;10.71;99.99
75010;DHT22;63564;46.840;18.336;2022-10-31T01:52:41;10.72;99.99
75010;DHT22;63564;46.840;18.336;2022-10-31T01:55:44;10.67;99.99
75010;DHT22;63564;46.840;18.336;2022-10-31T01:58:46;10.67;99.99
75010;DHT22;63564;46.840;18.336;2022-10-31T02:01:47;10.48;99.99
75010;DHT22;63564;46.840;18.336;2022-10-31T02:04:49;10.60;99.99
75010;DHT22;63564;46.840;18.336;2022-10-31T02:08:08;10.55;99.99
75010;DHT22;63564;46.840;18.336;2022-10-31T02:11:11;10.67;99.99
75010;DHT22;63564;46.840;18.336;2022-10-31T02:14:13;10.71;99.99
75010;DHT22;63564;46.840;18.336;2022-10-31T02:17:13;10.78;99.89
75010;DHT22;63564;46.840;18.336;2022-10-31T02:20:22;10.86;99.75
75010;DHT22;63564;46.840;18.336;2022-10-31T02:24:00;10.71;99.99
75010;DHT22;63564;46.840;18.336;2022-10-31T02:27:19;10.55;99.99
75010;DHT22;63564;46.840;18.336;2022-10-31T02:30:23;10.60;99.99
75010;DHT22;63564;46.840;18.336;2022-10-31T02:33:43;10.62;99.99
75010;DHT22;63564;46.840;18.336;2022-10-31T02:37:10;10.68;99.99
75010;DHT22;63564;46.840;18.336;2022-10-31T02:40:17;10.60;99.99
75010;DHT22;63564;46.840;18.336;2022-10-31T02:43:29;10.52;99.99
75010;DHT22;63564;46.840;18.336;2022-10-31T02:49:50;10.47;99.99
75010;DHT22;63564;46.840;18.336;2022-10-31T02:52:53;10.36;99.99
75010;DHT22;63564;46.840;18.336;2022-10-31T02:55:58;10.51;99.99
75010;DHT22;63564;46.840;18.336;2022-10-31T02:59:03;10.57;99.99
75010;DHT22;63564;46.840;18.336;2022-10-31T03:02:09;10.65;99.99
75010;DHT22;63564;46.840;18.336;2022-10-31T03:09:10;10.52;99.99
75010;DHT22;63564;46.840;18.336;2022-10-31T03:12:15;10.55;99.99
75010;DHT22;63564;46.840;18.336;2022-10-31T03:15:24;10.50;99.99
75010;DHT22;63564;46.840;18.336;2022-10-31T03:18:40;10.62;99.99
75010;DHT22;63564;46.840;18.336;2022-10-31T03:21:51;10.47;99.99
75010;DHT22;63564;46.840;18.336;2022-10-31T03:24:54;10.62;99.99
75010;DHT22;63564;46.840;18.336;2022-10-31T03:27:56;10.55;99.99
75010;DHT22;63564;46.840;18.336;2022-10-31T03:30:59;10.51;99.99
75010;DHT22;63564;46.840;18.336;2022-10-31T03:34:02;10.50;99.99
75010;DHT22;63564;46.840;18.336;2022-10-31T03:37:05;10.41;99.99
75010;DHT22;63564;46.840;18.336;2022-10-31T03:40:08;10.41;99.99
75010;DHT22;63564;46.840;18.336;2022-10-31T03:43:14;10.43;99.99
75010;DHT22;63564;46.840;18.336;2022-10-31T03:46:15;10.37;99.99
75010;DHT22;63564;46.840;18.336;2022-10-31T03:49:16;10.33;99.99
75010;DHT22;63564;46.840;18.336;2022-10-31T03:52:19;10.43;99.99
75010;DHT22;63564;46.840;18.336;2022-10-31T03:58:37;10.24;99.99
75010;DHT22;63564;46.840;18.336;2022-10-31T04:01:42;10.34;99.99
75010;DHT22;63564;46.840;18.336;2022-10-31T04:04:46;10.18;99.99
75010;DHT22;63564;46.840;18.336;2022-10-31T04:07:50;10.16;99.99
75010;DHT22;63564;46.840;18.336;2022-10-31T04:10:52;10.05;99.99
75010;DHT22;63564;46.840;18.336;2022-10-31T04:13:54;10.14;99.99
75010;DHT22;63564;46.840;18.336;2022-10-31T04:16:55;10.07;99.99
75010;DHT22;63564;46.840;18.336;2022-10-31T04:19:59;10.24;99.99
75010;DHT22;63564;46.840;18.336;2022-10-31T04:23:00;10.14;99.99
75010;DHT22;63564;46.840;18.336;2022-10-31T04:26:01;10.00;99.99
75010;DHT22;63564;46.840;18.336;2022-10-31T04:29:02;10.00;99.99
75010;DHT22;63564;46.840;18.336;2022-10-31T04:32:02;9.96;99.99
75010;DHT22;63564;46.840;18.336;2022-10-31T04:35:03;10.16;99.99
75010;DHT22;63564;46.840;18.336;2022-10-31T04:38:03;10.10;99.99
75010;DHT22;63564;46.840;18.336;2022-10-31T04:41:04;10.12;99.99
75010;DHT22;63564;46.840;18.336;2022-10-31T04:44:04;10.17;99.99
75010;DHT22;63564;46.840;18.336;2022-10-31T04:47:05;10.13;99.99
75010;DHT22;63564;46.840;18.336;2022-10-31T04:50:05;10.09;99.99
75010;DHT22;63564;46.840;18.336;2022-10-31T04:53:06;10.10;99.99
75010;DHT22;63564;46.840;18.336;2022-10-31T04:56:06;10.17;99.99
75010;DHT22;63564;46.840;18.336;2022-10-31T04:59:07;10.18;99.99
75010;DHT22;63564;46.840;18.336;2022-10-31T05:02:07;10.25;99.98
75010;DHT22;63564;46.840;18.336;2022-10-31T05:05:07;10.23;99.93
75010;DHT22;63564;46.840;18.336;2022-10-31T05:08:08;10.36;99.68
75010;DHT22;63564;46.840;18.336;2022-10-31T05:11:08;10.24;99.75
75010;DHT22;63564;46.840;18.336;2022-10-31T05:14:08;10.21;99.72
75010;DHT22;63564;46.840;18.336;2022-10-31T05:17:09;10.06;99.99
75010;DHT22;63564;46.840;18.336;2022-10-31T05:20:10;10.05;99.99
75010;DHT22;63564;46.840;18.336;2022-10-31T05:23:11;10.21;99.99
75010;DHT22;63564;46.840;18.336;2022-10-31T05:26:11;10.29;99.87
75010;DHT22;63564;46.840;18.336;2022-10-31T05:29:12;10.18;99.99
75010;DHT22;63564;46.840;18.336;2022-10-31T05:32:12;10.21;99.99
75010;DHT22;63564;46.840;18.336;2022-10-31T05:35:16;10.38;99.99
75010;DHT22;63564;46.840;18.336;2022-10-31T05:38:17;10.17;99.96
75010;DHT22;63564;46.840;18.336;2022-10-31T05:41:17;10.29;99.99
75010;DHT22;63564;46.840;18.336;2022-10-31T05:44:17;10.34;99.20
75010;DHT22;63564;46.840;18.336;2022-10-31T05:47:18;10.52;98.24
75010;DHT22;63564;46.840;18.336;2022-10-31T05:50:20;10.52;97.92
75010;DHT22;63564;46.840;18.336;2022-10-31T05:53:20;10.51;97.54
75010;DHT22;63564;46.840;18.336;2022-10-31T05:56:21;10.36;98.48
75010;DHT22;63564;46.840;18.336;2022-10-31T05:59:21;10.17;99.35
75010;DHT22;63564;46.840;18.336;2022-10-31T06:02:22;10.23;99.43
75010;DHT22;63564;46.840;18.336;2022-10-31T06:05:22;10.14;99.44
75010;DHT22;63564;46.840;18.336;2022-10-31T06:08:22;10.23;99.76
75010;DHT22;63564;46.840;18.336;2022-10-31T06:11:23;10.34;99.60
75010;DHT22;63564;46.840;18.336;2022-10-31T06:14:23;10.30;99.99
75010;DHT22;63564;46.840;18.336;2022-10-31T06:17:24;10.30;99.99
75010;DHT22;63564;46.840;18.336;2022-10-31T06:20:24;10.18;99.99
75010;DHT22;63564;46.840;18.336;2022-10-31T06:23:24;10.27;99.98
75010;DHT22;63564;46.840;18.336;2022-10-31T06:26:25;10.18;99.99
75010;DHT22;63564;46.840;18.336;2022-10-31T06:29:25;10.40;99.99
75010;DHT22;63564;46.840;18.336;2022-10-31T06:32:25;10.34;99.50
75010;DHT22;63564;46.840;18.336;2022-10-31T06:35:26;10.25;99.99
75010;DHT22;63564;46.840;18.336;2022-10-31T06:38:27;10.29;99.99
75010;DHT22;63564;46.840;18.336;2022-10-31T06:41:27;10.36;99.71
75010;DHT22;63564;46.840;18.336;2022-10-31T06:44:28;10.40;99.38
75010;DHT22;63564;46.840;18.336;2022-10-31T06:47:28;10.41;99.67
75010;DHT22;63564;46.840;18.336;2022-10-31T06:50:29;10.37;99.15
75010;DHT22;63564;46.840;18.336;2022-10-31T06:53:29;10.38;98.66
75010;DHT22;63564;46.840;18.336;2022-10-31T06:56:32;10.29;99.11
75010;DHT22;63564;46.840;18.336;2022-10-31T06:59:32;10.38;98.96
75010;DHT22;63564;46.840;18.336;2022-10-31T07:02:33;10.33;99.07
75010;DHT22;63564;46.840;18.336;2022-10-31T07:05:33;10.30;99.05
75010;DHT22;63564;46.840;18.336;2022-10-31T07:08:33;10.29;99.30
75010;DHT22;63564;46.840;18.336;2022-10-31T07:11:34;10.20;99.21
75010;DHT22;63564;46.840;18.336;2022-10-31T07:14:34;10.29;99.38
75010;DHT22;63564;46.840;18.336;2022-10-31T07:17:34;10.45;98.66
75010;DHT22;63564;46.840;18.336;2022-10-31T07:20:35;10.36;98.03
75010;DHT22;63564;46.840;18.336;2022-10-31T07:23:35;10.21;98.77
75010;DHT22;63564;46.840;18.336;2022-10-31T07:26:35;10.37;98.18
75010;DHT22;63564;46.840;18.336;2022-10-31T07:29:36;10.24;98.65
75010;DHT22;63564;46.840;18.336;2022-10-31T07:35:39;10.40;98.00
75010;DHT22;63564;46.840;18.336;2022-10-31T07:38:40;10.52;97.74
75010;DHT22;63564;46.840;18.336;2022-10-31T07:41:40;10.55;97.26
75010;DHT22;63564;46.840;18.336;2022-10-31T07:44:40;10.69;96.37
75010;DHT22;63564;46.840;18.336;2022-10-31T07:47:42;10.40;97.98
75010;DHT22;63564;46.840;18.336;2022-10-31T07:50:43;10.44;97.84
75010;DHT22;63564;46.840;18.336;2022-10-31T07:53:43;10.38;98.32
75010;DHT22;63564;46.840;18.336;2022-10-31T07:56:44;10.44;98.47
75010;DHT22;63564;46.840;18.336;2022-10-31T07:59:44;10.33;98.44
75010;DHT22;63564;46.840;18.336;2022-10-31T08:02:44;10.29;98.02
75010;DHT22;63564;46.840;18.336;2022-10-31T08:05:45;10.00;99.31
75010;DHT22;63564;46.840;18.336;2022-10-31T08:08:46;10.33;99.30
75010;DHT22;63564;46.840;18.336;2022-10-31T08:11:46;10.38;98.99
75010;DHT22;63564;46.840;18.336;2022-10-31T08:14:46;10.40;98.93
75010;DHT22;63564;46.840;18.336;2022-10-31T08:17:47;10.44;98.35
75010;DHT22;63564;46.840;18.336;2022-10-31T08:20:47;10.65;97.81
75010;DHT22;63564;46.840;18.336;2022-10-31T08:23:48;10.75;97.32
75010;DHT22;63564;46.840;18.336;2022-10-31T08:26:48;10.76;97.43
75010;DHT22;63564;46.840;18.336;2022-10-31T08:29:48;10.73;97.49
75010;DHT22;63564;46.840;18.336;2022-10-31T08:33:00;10.58;97.67
75010;DHT22;63564;46.840;18.336;2022-10-31T08:36:01;10.96;96.24
75010;DHT22;63564;46.840;18.336;2022-10-31T08:39:02;10.55;98.24
75010;DHT22;63564;46.840;18.336;2022-10-31T08:42:02;10.58;99.36
75010;DHT22;63564;46.840;18.336;2022-10-31T08:45:03;10.69;99.18
75010;DHT22;63564;46.840;18.336;2022-10-31T08:48:05;11.08;96.43
75010;DHT22;63564;46.840;18.336;2022-10-31T08:51:06;11.28;95.41
75010;DHT22;63564;46.840;18.336;2022-10-31T08:54:06;11.27;95.54
75010;DHT22;63564;46.840;18.336;2022-10-31T08:57:07;11.30;95.39
75010;DHT22;63564;46.840;18.336;2022-10-31T09:00:08;11.15;96.41
75010;DHT22;63564;46.840;18.336;2022-10-31T09:03:16;10.98;96.82
75010;DHT22;63564;46.840;18.336;2022-10-31T09:06:17;11.15;96.72
75010;DHT22;63564;46.840;18.336;2022-10-31T09:09:17;10.83;97.57
75010;DHT22;63564;46.840;18.336;2022-10-31T09:12:17;10.98;96.78
75010;DHT22;63564;46.840;18.336;2022-10-31T09:15:18;10.82;98.14
75010;DHT22;63564;46.840;18.336;2022-10-31T09:18:20;11.40;94.44
75010;DHT22;63564;46.840;18.336;2022-10-31T09:21:21;11.12;95.72
75010;DHT22;63564;46.840;18.336;2022-10-31T09:24:21;11.40;95.15
75010;DHT22;63564;46.840;18.336;2022-10-31T09:27:22;11.12;96.78
75010;DHT22;63564;46.840;18.336;2022-10-31T09:30:22;11.30;96.85
75010;DHT22;63564;46.840;18.336;2022-10-31T09:33:23;11.19;97.17
75010;DHT22;63564;46.840;18.336;2022-10-31T09:36:23;11.15;98.05
75010;DHT22;63564;46.840;18.336;2022-10-31T09:39:23;11.15;97.63
75010;DHT22;63564;46.840;18.336;2022-10-31T09:46:11;11.33;97.76
75010;DHT22;63564;46.840;18.336;2022-10-31T09:52:36;11.64;94.76
75010;DHT22;63564;46.840;18.336;2022-10-31T09:55:41;11.40;97.17
75010;DHT22;63564;46.840;18.336;2022-10-31T09:58:56;11.43;96.48
75010;DHT22;63564;46.840;18.336;2022-10-31T10:02:12;11.17;98.08
75010;DHT22;63564;46.840;18.336;2022-10-31T10:05:21;11.30;97.50
75010;DHT22;63564;46.840;18.336;2022-10-31T10:08:26;11.34;97.46
75010;DHT22;63564;46.840;18.336;2022-10-31T10:11:37;11.27;98.35
75010;DHT22;63564;46.840;18.336;2022-10-31T10:18:11;11.36;97.76
75010;DHT22;63564;46.840;18.336;2022-10-31T10:21:26;11.44;97.11
75010;DHT22;63564;46.840;18.336;2022-10-31T10:31:06;11.38;97.37
75010;DHT22;63564;46.840;18.336;2022-10-31T10:34:15;11.47;96.94
75010;DHT22;63564;46.840;18.336;2022-10-31T10:40:24;11.36;97.67
75010;DHT22;63564;46.840;18.336;2022-10-31T10:43:38;11.41;97.90
75010;DHT22;63564;46.840;18.336;2022-10-31T10:46:44;11.84;95.92
75010;DHT22;63564;46.840;18.336;2022-10-31T10:50:19;11.98;94.89
75010;DHT22;63564;46.840;18.336;2022-10-31T11:00:31;12.15;93.88
75010;DHT22;63564;46.840;18.336;2022-10-31T11:03:34;12.02;94.84
75010;DHT22;63564;46.840;18.336;2022-10-31T11:06:35;11.85;96.15
75010;DHT22;63564;46.840;18.336;2022-10-31T11:09:37;11.99;94.79
75010;DHT22;63564;46.840;18.336;2022-10-31T11:12:38;12.34;93.20
75010;DHT22;63564;46.840;18.336;2022-10-31T11:16:01;12.29;93.53
75010;DHT22;63564;46.840;18.336;2022-10-31T11:19:19;12.11;93.46
75010;DHT22;63564;46.840;18.336;2022-10-31T11:22:20;11.70;95.72
75010;DHT22;63564;46.840;18.336;2022-10-31T11:25:22;11.77;95.84
75010;DHT22;63564;46.840;18.336;2022-10-31T11:28:24;11.77;95.55
75010;DHT22;63564;46.840;18.336;2022-10-31T11:31:25;11.70;96.69
75010;DHT22;63564;46.840;18.336;2022-10-31T11:34:37;11.89;95.65
75010;DHT22;63564;46.840;18.336;2022-10-31T11:37:42;12.02;94.68
75010;DHT22;63564;46.840;18.336;2022-10-31T11:41:15;12.11;95.22
75010;DHT22;63564;46.840;18.336;2022-10-31T11:47:26;11.71;96.75
75010;DHT22;63564;46.840;18.336;2022-10-31T11:53:34;11.67;96.49
75010;DHT22;63564;46.840;18.336;2022-10-31T11:56:39;11.79;96.69
75010;DHT22;63564;46.840;18.336;2022-10-31T11:59:51;11.54;97.45
75010;DHT22;63564;46.840;18.336;2022-10-31T12:06:33;11.57;97.65
75010;DHT22;63564;46.840;18.336;2022-10-31T12:09:35;11.68;97.80
75010;DHT22;63564;46.840;18.336;2022-10-31T12:15:47;11.75;97.04
75010;DHT22;63564;46.840;18.336;2022-10-31T12:28:22;12.05;96.06
75010;DHT22;63564;46.840;18.336;2022-10-31T12:45:00;12.15;95.13
75010;DHT22;63564;46.840;18.336;2022-10-31T12:54:51;11.92;97.23
75010;DHT22;63564;46.840;18.336;2022-10-31T12:58:01;11.99;96.72
75010;DHT22;63564;46.840;18.336;2022-10-31T13:08:07;11.96;97.47
75010;DHT22;63564;46.840;18.336;2022-10-31T13:11:14;11.91;97.65
75010;DHT22;63564;46.840;18.336;2022-10-31T13:14:35;11.82;97.59
75010;DHT22;63564;46.840;18.336;2022-10-31T13:17:41;11.84;97.98
75010;DHT22;63564;46.840;18.336;2022-10-31T13:20:44;11.88;97.85
75010;DHT22;63564;46.840;18.336;2022-10-31T13:23:48;11.88;97.90
75010;DHT22;63564;46.840;18.336;2022-10-31T13:26:55;11.89;98.55
75010;DHT22;63564;46.840;18.336;2022-10-31T13:30:12;12.18;97.29
75010;DHT22;63564;46.840;18.336;2022-10-31T13:42:42;12.19;96.67
75010;DHT22;63564;46.840;18.336;2022-10-31T13:45:53;12.29;96.15
75010;DHT22;63564;46.840;18.336;2022-10-31T13:48:54;12.23;96.14
75010;DHT22;63564;46.840;18.336;2022-10-31T13:55:35;12.15;97.55
75010;DHT22;63564;46.840;18.336;2022-10-31T13:58:36;11.94;98.55
75010;DHT22;63564;46.840;18.336;2022-10-31T14:01:45;12.13;97.53
75010;DHT22;63564;46.840;18.336;2022-10-31T14:04:49;12.22;97.21
75010;DHT22;63564;46.840;18.336;2022-10-31T14:07:53;12.20;97.52
75010;DHT22;63564;46.840;18.336;2022-10-31T14:10:55;12.09;97.85
75010;DHT22;63564;46.840;18.336;2022-10-31T14:13:57;12.05;98.33
75010;DHT22;63564;46.840;18.336;2022-10-31T14:16:59;12.25;97.55
75010;DHT22;63564;46.840;18.336;2022-10-31T14:26:34;12.37;96.54
75010;DHT22;63564;46.840;18.336;2022-10-31T14:29:35;12.37;96.50
75010;DHT22;63564;46.840;18.336;2022-10-31T14:32:36;12.33;96.89
75010;DHT22;63564;46.840;18.336;2022-10-31T14:47:16;12.05;98.70
75010;DHT22;63564;46.840;18.336;2022-10-31T14:53:23;11.98;98.92
75010;DHT22;63564;46.840;18.336;2022-10-31T14:56:39;12.25;98.21
75010;DHT22;63564;46.840;18.336;2022-10-31T14:59:47;12.11;98.79
75010;DHT22;63564;46.840;18.336;2022-10-31T15:06:13;12.11;97.89
75010;DHT22;63564;46.840;18.336;2022-10-31T15:09:25;11.88;98.95
75010;DHT22;63564;46.840;18.336;2022-10-31T15:12:31;11.88;99.20
75010;DHT22;63564;46.840;18.336;2022-10-31T15:15:32;11.82;99.43
75010;DHT22;63564;46.840;18.336;2022-10-31T15:18:34;11.96;98.77
75010;DHT22;63564;46.840;18.336;2022-10-31T15:21:34;11.84;99.01
75010;DHT22;63564;46.840;18.336;2022-10-31T15:24:38;11.89;98.96
75010;DHT22;63564;46.840;18.336;2022-10-31T15:27:40;11.84;99.01
75010;DHT22;63564;46.840;18.336;2022-10-31T15:30:50;11.84;98.99
75010;DHT22;63564;46.840;18.336;2022-10-31T15:33:51;11.86;99.04
75010;DHT22;63564;46.840;18.336;2022-10-31T15:36:54;11.81;98.91
75010;DHT22;63564;46.840;18.336;2022-10-31T15:39:55;12.01;97.97
75010;DHT22;63564;46.840;18.336;2022-10-31T15:43:03;12.05;97.65
75010;DHT22;63564;46.840;18.336;2022-10-31T15:46:07;11.92;97.86
75010;DHT22;63564;46.840;18.336;2022-10-31T15:49:41;11.74;98.52
75010;DHT22;63564;46.840;18.336;2022-10-31T15:52:43;11.71;98.97
75010;DHT22;63564;46.840;18.336;2022-10-31T15:55:55;11.67;99.48
75010;DHT22;63564;46.840;18.336;2022-10-31T15:58:57;11.77;99.39
75010;DHT22;63564;46.840;18.336;2022-10-31T16:02:00;11.68;99.76
75010;DHT22;63564;46.840;18.336;2022-10-31T16:05:01;11.70;99.92
75010;DHT22;63564;46.840;18.336;2022-10-31T16:08:02;11.78;99.49
75010;DHT22;63564;46.840;18.336;2022-10-31T16:14:18;11.77;99.50
75010;DHT22;63564;46.840;18.336;2022-10-31T16:17:21;11.57;99.99
75010;DHT22;63564;46.840;18.336;2022-10-31T16:20:27;11.61;99.99
75010;DHT22;63564;46.840;18.336;2022-10-31T16:23:29;11.70;99.78
75010;DHT22;63564;46.840;18.336;2022-10-31T16:26:29;11.81;99.60
75010;DHT22;63564;46.840;18.336;2022-10-31T16:29:41;11.89;99.22
75010;DHT22;63564;46.840;18.336;2022-10-31T16:32:59;11.92;99.08
75010;DHT22;63564;46.840;18.336;2022-10-31T16:36:00;11.89;99.07
75010;DHT22;63564;46.840;18.336;2022-10-31T16:39:03;11.88;99.20
75010;DHT22;63564;46.840;18.336;2022-10-31T16:42:04;11.86;99.22
75010;DHT22;63564;46.840;18.336;2022-10-31T16:45:05;11.91;98.78
75010;DHT22;63564;46.840;18.336;2022-10-31T16:48:10;11.88;98.82
75010;DHT22;63564;46.840;18.336;2022-10-31T16:51:11;11.84;99.16
75010;DHT22;63564;46.840;18.336;2022-10-31T16:54:11;11.98;98.37
75010;DHT22;63564;46.840;18.336;2022-10-31T16:57:15;12.01;98.17
75010;DHT22;63564;46.840;18.336;2022-10-31T17:00:20;12.03;98.03
75010;DHT22;63564;46.840;18.336;2022-10-31T17:03:21;11.88;98.31
75010;DHT22;63564;46.840;18.336;2022-10-31T17:06:21;11.92;98.60
75010;DHT22;63564;46.840;18.336;2022-10-31T17:09:22;11.91;98.39
75010;DHT22;63564;46.840;18.336;2022-10-31T17:12:24;11.98;98.28
75010;DHT22;63564;46.840;18.336;2022-10-31T17:15:27;11.99;98.30
75010;DHT22;63564;46.840;18.336;2022-10-31T17:18:27;12.01;98.51
75010;DHT22;63564;46.840;18.336;2022-10-31T17:21:28;11.89;99.09
75010;DHT22;63564;46.840;18.336;2022-10-31T17:24:28;11.92;99.36
75010;DHT22;63564;46.840;18.336;2022-10-31T17:27:28;11.85;99.75
75010;DHT22;63564;46.840;18.336;2022-10-31T17:30:30;11.85;99.87
75010;DHT22;63564;46.840;18.336;2022-10-31T17:33:30;11.99;99.63
75010;DHT22;63564;46.840;18.336;2022-10-31T17:36:32;11.98;99.58
75010;DHT22;63564;46.840;18.336;2022-10-31T17:39:32;12.01;99.43
75010;DHT22;63564;46.840;18.336;2022-10-31T17:42:32;11.99;99.25
75010;DHT22;63564;46.840;18.336;2022-10-31T17:45:33;11.99;99.35
75010;DHT22;63564;46.840;18.336;2022-10-31T17:48:35;11.92;99.68
75010;DHT22;63564;46.840;18.336;2022-10-31T17:51:35;12.05;99.13
75010;DHT22;63564;46.840;18.336;2022-10-31T17:54:36;11.92;99.63
75010;DHT22;63564;46.840;18.336;2022-10-31T17:57:36;12.01;99.37
75010;DHT22;63564;46.840;18.336;2022-10-31T18:00:38;11.96;99.32
75010;DHT22;63564;46.840;18.336;2022-10-31T18:03:40;11.98;99.24
75010;DHT22;63564;46.840;18.336;2022-10-31T18:06:40;11.94;99.60
75010;DHT22;63564;46.840;18.336;2022-10-31T18:09:41;11.92;99.65
75010;DHT22;63564;46.840;18.336;2022-10-31T18:12:41;11.82;99.92
75010;DHT22;63564;46.840;18.336;2022-10-31T18:15:42;11.94;99.78
75010;DHT22;63564;46.840;18.336;2022-10-31T18:18:42;11.96;99.54
75010;DHT22;63564;46.840;18.336;2022-10-31T18:21:44;11.94;99.36
75010;DHT22;63564;46.840;18.336;2022-10-31T18:24:44;11.91;99.51
75010;DHT22;63564;46.840;18.336;2022-10-31T18:27:45;11.86;99.84
75010;DHT22;63564;46.840;18.336;2022-10-31T18:30:45;11.99;99.30
75010;DHT22;63564;46.840;18.336;2022-10-31T18:33:46;11.98;99.44
75010;DHT22;63564;46.840;18.336;2022-10-31T18:36:46;12.03;99.19
75010;DHT22;63564;46.840;18.336;2022-10-31T18:39:46;11.96;99.32
75010;DHT22;63564;46.840;18.336;2022-10-31T18:42:47;11.95;99.50
75010;DHT22;63564;46.840;18.336;2022-10-31T18:45:47;11.98;99.32
75010;DHT22;63564;46.840;18.336;2022-10-31T18:48:48;11.92;99.18
75010;DHT22;63564;46.840;18.336;2022-10-31T18:51:49;11.95;99.04
75010;DHT22;63564;46.840;18.336;2022-10-31T18:54:49;11.95;99.09
75010;DHT22;63564;46.840;18.336;2022-10-31T18:57:49;11.79;99.78
75010;DHT22;63564;46.840;18.336;2022-10-31T19:00:50;11.78;99.87
75010;DHT22;63564;46.840;18.336;2022-10-31T19:03:55;11.81;99.99
75010;DHT22;63564;46.840;18.336;2022-10-31T19:06:55;11.88;99.90
75010;DHT22;63564;46.840;18.336;2022-10-31T19:09:56;11.82;99.95
75010;DHT22;63564;46.840;18.336;2022-10-31T19:12:56;11.85;99.99
75010;DHT22;63564;46.840;18.336;2022-10-31T19:16:02;11.94;99.98
75010;DHT22;63564;46.840;18.336;2022-10-31T19:19:03;11.94;99.54
75010;DHT22;63564;46.840;18.336;2022-10-31T19:22:04;11.91;99.90
75010;DHT22;63564;46.840;18.336;2022-10-31T19:25:05;11.94;99.93
75010;DHT22;63564;46.840;18.336;2022-10-31T19:28:05;11.99;99.80
75010;DHT22;63564;46.840;18.336;2022-10-31T19:31:06;12.11;99.44
75010;DHT22;63564;46.840;18.336;2022-10-31T19:34:09;12.01;99.44
75010;DHT22;63564;46.840;18.336;2022-10-31T19:37:09;12.05;99.58
75010;DHT22;63564;46.840;18.336;2022-10-31T19:40:10;12.05;99.51
75010;DHT22;63564;46.840;18.336;2022-10-31T19:43:10;12.03;99.69
75010;DHT22;63564;46.840;18.336;2022-10-31T19:46:12;12.01;99.54
75010;DHT22;63564;46.840;18.336;2022-10-31T19:49:13;11.95;99.74
75010;DHT22;63564;46.840;18.336;2022-10-31T19:52:13;12.05;99.60
75010;DHT22;63564;46.840;18.336;2022-10-31T19:55:13;12.13;99.20
75010;DHT22;63564;46.840;18.336;2022-10-31T19:58:14;12.15;98.86
75010;DHT22;63564;46.840;18.336;2022-10-31T20:01:16;12.09;99.37
75010;DHT22;63564;46.840;18.336;2022-10-31T20:04:17;12.13;99.12
75010;DHT22;63564;46.840;18.336;2022-10-31T20:07:17;12.09;99.22
75010;DHT22;63564;46.840;18.336;2022-10-31T20:10:18;12.12;99.26
75010;DHT22;63564;46.840;18.336;2022-10-31T20:13:18;12.16;99.26
75010;DHT22;63564;46.840;18.336;2022-10-31T20:16:18;12.16;98.91
75010;DHT22;63564;46.840;18.336;2022-10-31T20:19:19;12.22;98.91
75010;DHT22;63564;46.840;18.336;2022-10-31T20:22:19;12.20;98.79
75010;DHT22;63564;46.840;18.336;2022-10-31T20:25:19;12.32;98.63
75010;DHT22;63564;46.840;18.336;2022-10-31T20:28:20;12.23;98.97
75010;DHT22;63564;46.840;18.336;2022-10-31T20:31:23;12.23;99.15
75010;DHT22;63564;46.840;18.336;2022-10-31T20:34:23;12.25;98.83
75010;DHT22;63564;46.840;18.336;2022-10-31T20:37:24;12.25;98.66
75010;DHT22;63564;46.840;18.336;2022-10-31T20:40:24;12.16;99.14
75010;DHT22;63564;46.840;18.336;2022-10-31T20:43:24;12.26;98.87
75010;DHT22;63564;46.840;18.336;2022-10-31T20:46:25;12.25;99.05
75010;DHT22;63564;46.840;18.336;2022-10-31T20:49:26;12.19;99.27
75010;DHT22;63564;46.840;18.336;2022-10-31T20:52:26;12.25;99.10
75010;DHT22;63564;46.840;18.336;2022-10-31T20:55:27;12.11;99.41
75010;DHT22;63564;46.840;18.336;2022-10-31T20:58:27;12.16;99.53
75010;DHT22;63564;46.840;18.336;2022-10-31T21:01:30;12.23;98.79
75010;DHT22;63564;46.840;18.336;2022-10-31T21:04:32;12.23;98.78
75010;DHT22;63564;46.840;18.336;2022-10-31T21:07:32;12.22;99.01